createdAt,value
2019-03-03T01:06:46.637Z,95333.91
2019-03-03T01:11:53.963Z,95339.35
2019-03-03T01:17:04.509Z,95331.95
2019-03-03T01:22:11.869Z,95327.78
2019-03-03T01:27:14.154Z,95329.83
2019-03-03T02:35:37.948Z,95316.48
2019-03-03T02:40:39.287Z,95306.56
2019-03-03T02:45:40.887Z,95293.06
2019-03-03T02:50:42.253Z,95305.52
2019-03-03T02:55:43.604Z,95297.16
2019-03-03T04:04:07.146Z,95297.99
2019-03-03T04:09:10.375Z,95305.64
2019-03-03T04:14:12.664Z,95297.22
2019-03-03T04:19:13.970Z,95302.80
2019-03-03T04:24:15.281Z,95306.49
2019-03-03T04:29:17.495Z,95302.04
2019-03-03T06:03:00.136Z,95254.06
2019-03-03T06:08:01.397Z,95251.16
2019-03-03T06:13:02.721Z,95251.78
2019-03-03T06:18:04.065Z,95243.03
2019-03-03T06:23:05.437Z,95240.00
2019-03-03T06:28:06.781Z,95240.41
2019-03-03T06:33:08.116Z,95239.95
2019-03-03T06:38:09.491Z,95247.30
2019-03-03T06:43:10.765Z,95238.42
2019-03-03T06:48:12.124Z,95248.58
2019-03-03T06:53:13.618Z,95250.59
2019-03-03T06:58:14.964Z,95239.03
2019-03-03T07:03:17.318Z,95244.05
2019-03-03T07:08:19.381Z,95243.75
2019-03-03T07:13:21.825Z,95246.66
2019-03-03T07:18:23.392Z,95232.63
2019-03-03T07:23:24.725Z,95232.72
2019-03-03T07:28:31.565Z,95244.16
2019-03-03T07:33:32.887Z,95233.86
2019-03-03T07:38:34.367Z,95232.12
2019-03-03T07:43:35.689Z,95227.62
2019-03-03T07:48:37.012Z,95240.67
2019-03-03T07:53:38.369Z,95242.91
2019-03-03T07:58:39.801Z,95242.42
2019-03-03T08:03:41.185Z,95249.16
2019-03-03T08:08:42.539Z,95253.63
2019-03-03T08:13:43.868Z,95252.30
2019-03-03T08:18:45.347Z,95244.80
2019-03-03T08:23:54.739Z,95222.83
2019-03-03T08:28:56.196Z,95217.34
2019-03-03T08:33:57.561Z,95210.38
2019-03-03T08:38:58.920Z,95205.02
2019-03-03T08:44:00.357Z,95225.09
2019-03-03T08:49:04.717Z,95214.72
2019-03-03T08:54:12.614Z,95218.59
2019-03-03T08:59:19.804Z,95202.95
2019-03-03T09:09:59.698Z,95195.09
2019-03-03T09:15:01.076Z,95195.52
2019-03-03T09:25:36.582Z,95184.23
2019-03-03T09:30:38.900Z,95187.83
2019-03-03T09:35:45.984Z,95162.30
2019-03-03T09:40:48.292Z,95157.28
2019-03-03T09:51:27.868Z,95160.98
2019-03-03T09:56:33.996Z,95178.44
2019-03-03T10:01:41.468Z,95174.67
2019-03-03T10:12:18.228Z,95183.45
2019-03-03T10:23:05.458Z,95189.47
2019-03-03T10:33:41.417Z,95160.10
2019-03-03T10:38:50.661Z,95171.84
2019-03-03T10:43:55.877Z,95168.81
2019-03-03T10:54:52.162Z,95142.97
2019-03-03T11:00:00.433Z,95147.48
2019-03-03T11:05:17.422Z,95140.01
2019-03-03T11:10:21.616Z,95137.53
2019-03-03T11:15:23.146Z,95142.16
2019-03-03T11:20:25.545Z,95156.80
2019-03-03T11:31:14.881Z,95157.11
2019-03-03T11:36:22.445Z,95164.69
2019-03-03T11:41:25.651Z,95111.70
2019-03-03T11:46:27.045Z,95108.34
2019-03-03T11:51:29.368Z,95122.08
2019-03-03T11:56:30.802Z,95099.50
2019-03-03T12:01:33.116Z,95083.98
2019-03-03T12:12:03.943Z,95065.44
2019-03-03T12:17:05.334Z,95054.91
2019-03-03T12:22:11.695Z,95048.33
2019-03-03T12:27:14.837Z,95078.59
2019-03-03T12:32:18.045Z,95033.41
2019-03-03T12:37:21.254Z,95035.78
2019-03-03T12:42:27.556Z,95049.69
2019-03-03T12:47:38.809Z,95034.83
2019-03-03T12:52:46.516Z,95028.78
2019-03-03T12:57:49.833Z,95040.03
2019-03-03T13:02:51.182Z,95027.19
2019-03-03T13:07:52.547Z,95008.25
2019-03-03T13:12:55.688Z,95020.16
2019-03-03T13:17:58.003Z,95006.72
2019-03-03T13:23:15.743Z,94996.45
2019-03-03T13:28:22.586Z,94976.88
2019-03-03T13:33:27.075Z,94975.16
2019-03-03T13:44:02.571Z,94951.22
2019-03-03T13:49:03.908Z,94947.23
2019-03-03T13:54:06.605Z,94949.41
2019-03-03T13:59:06.775Z,94935.88
2019-03-03T14:04:08.876Z,94941.72
2019-03-03T14:09:11.929Z,94932.84
2019-03-03T14:14:13.253Z,94908.30
2019-03-03T14:19:14.613Z,94904.66
2019-03-03T14:24:16.767Z,94911.63
2019-03-03T14:29:18.240Z,94912.38
2019-03-03T14:34:19.673Z,94896.41
2019-03-03T14:39:21.069Z,94906.09
2019-03-03T14:44:22.420Z,94897.16
2019-03-03T14:49:23.827Z,94872.78
2019-03-03T14:54:26.063Z,94871.10
2019-03-03T14:59:27.503Z,94861.69
2019-03-03T15:04:32.485Z,94851.52
2019-03-03T15:09:34.141Z,94830.84
2019-03-03T15:14:35.647Z,94833.16
2019-03-03T15:19:37.056Z,94831.69
2019-03-03T15:24:39.452Z,94817.00
2019-03-03T15:29:40.943Z,94825.67
2019-03-03T15:34:43.085Z,94818.93
2019-03-03T15:39:44.442Z,94813.98
2019-03-03T15:44:47.291Z,94808.99
2019-03-03T15:49:48.771Z,94792.16
2019-03-03T15:54:50.109Z,94797.78
2019-03-03T15:59:51.485Z,94786.77
2019-03-03T16:04:53.462Z,94773.96
2019-03-03T16:09:55.276Z,94763.59
2019-03-03T16:14:57.819Z,94774.88
2019-03-03T16:19:59.364Z,94778.15
2019-03-03T16:25:00.890Z,94773.14
2019-03-03T16:30:02.263Z,94777.41
2019-03-03T16:35:03.597Z,94771.22
2019-03-03T16:40:10.808Z,94787.52
2019-03-03T16:45:12.232Z,94768.36
2019-03-03T16:50:16.141Z,94766.89
2019-03-03T16:55:20.723Z,94773.44
2019-03-03T17:00:26.795Z,94773.77
2019-03-03T17:05:31.589Z,94760.50
2019-03-03T17:10:41.210Z,94749.69
2019-03-03T17:15:49.495Z,94749.09
2019-03-03T17:20:54.815Z,94745.48
2019-03-03T17:25:57.153Z,94744.14
2019-03-03T17:31:01.893Z,94745.89
2019-03-03T17:36:11.119Z,94739.09
2019-03-03T17:41:18.685Z,94735.06
2019-03-03T17:46:24.101Z,94734.77
2019-03-03T17:51:28.960Z,94728.19
2019-03-03T17:56:33.253Z,94721.44
2019-03-03T18:01:44.676Z,94728.53
2019-03-03T18:06:50.431Z,94714.63
2019-03-03T18:11:51.736Z,94714.44
2019-03-03T18:16:53.026Z,94697.33
2019-03-03T18:21:54.488Z,94701.74
2019-03-03T18:26:55.936Z,94689.95
2019-03-03T18:31:58.083Z,94687.70
2019-03-03T18:37:00.162Z,94686.57
2019-03-03T18:42:02.780Z,94697.10
2019-03-03T18:47:04.171Z,94677.02
2019-03-03T18:52:05.509Z,94658.09
2019-03-03T18:57:06.939Z,94663.69
2019-03-03T19:02:08.381Z,94661.84
2019-03-03T19:07:09.725Z,94655.03
2019-03-03T19:12:11.206Z,94646.47
2019-03-03T19:17:12.696Z,94655.59
2019-03-03T19:22:14.294Z,94662.70
2019-03-03T19:27:16.458Z,94656.47
2019-03-03T19:32:17.947Z,94655.53
2019-03-03T19:37:19.292Z,94642.45
2019-03-03T19:42:20.673Z,94645.25
2019-03-03T19:47:22.794Z,94640.27
2019-03-03T19:52:24.161Z,94634.48
2019-03-03T19:57:25.525Z,94631.39
2019-03-03T20:02:26.893Z,94629.42
2019-03-03T20:07:28.196Z,94617.38
2019-03-03T20:12:29.642Z,94618.50
2019-03-03T20:17:31.201Z,94623.15
2019-03-03T20:22:32.781Z,94621.14
2019-03-03T20:27:34.209Z,94618.31
2019-03-03T20:32:35.665Z,94615.94
2019-03-03T20:37:37.775Z,94612.88
2019-03-03T20:42:39.246Z,94620.79
2019-03-03T20:47:40.601Z,94616.66
2019-03-03T20:52:42.132Z,94607.38
2019-03-03T20:57:43.512Z,94602.97
2019-03-03T21:02:44.934Z,94605.41
2019-03-03T21:07:51.239Z,94594.00
2019-03-03T21:12:47.812Z,94598.00
2019-03-03T21:17:49.907Z,94587.43
2019-03-03T21:22:51.249Z,94587.43
2019-03-03T21:27:53.431Z,94571.02
2019-03-03T21:32:55.518Z,94573.34
2019-03-03T21:37:58.864Z,94569.33
2019-03-03T21:42:58.235Z,94565.70
2019-03-03T21:47:59.532Z,94571.56
2019-03-03T21:53:00.973Z,94553.93
2019-03-03T21:58:03.105Z,94561.57
2019-03-03T22:03:04.684Z,94552.48
2019-03-03T22:08:06.036Z,94546.00
2019-03-03T22:13:07.436Z,94558.44
2019-03-03T22:18:08.744Z,94557.85
2019-03-03T22:23:10.099Z,94543.13
2019-03-03T22:28:12.319Z,94538.83
2019-03-03T22:33:13.681Z,94532.98
2019-03-03T22:38:15.109Z,94532.85
2019-03-03T22:43:16.424Z,94522.80
2019-03-03T22:48:17.732Z,94515.67
2019-03-03T22:53:19.036Z,94517.12
2019-03-03T22:58:20.385Z,94511.89
2019-03-03T23:35:02.005Z,94447.55
2019-03-03T23:40:03.330Z,94449.11
2019-03-03T23:45:04.721Z,94438.45
2019-03-03T23:50:06.094Z,94421.84
2019-03-03T23:55:07.438Z,94411.59
